Airfield :
LOGIN :

Register | Disclaimer

   EN    FR    IT 

 










Legend :    VFR   Marginal VFR   IFR   Intensive IFR   Very Intensive IFR
Visi :
Ceiling :
>= 8 km
>= 3000ft
5 to 8 km
1000 to 3000 ft
1500m to 5 km
500 to 1000 ft
800 to 1500m
200 to 500 ft
< 800m
< 200 ft
Symbols :   Thunderstorms  Fog  Heavy snow  Heavy precipitations  Wind > 20 kt
SIGMETs :     Misc.  Thunderstorms  Icing  Turbulence  Mountain Waves  Volcanic Ashes






- Airport Elevation : 7 ft
- IATA code : POW


LJPZ - Portoroz

CURRENT METAR :
  • 290800Z 13004KT 070V220 9999 FEW050 BKN065 OVC100 08/01 Q1016

EXPIRED METARs :
  • 290730Z 11004KT 070V150 9999 FEW050 BKN080 OVC100 07/01 Q1016
  • 290700Z 12005KT 070V190 9999 FEW050 BKN080 OVC100 07/01 Q1016
  • 290630Z 14004KT 090V210 9999 FEW050 BKN065 OVC100 07/02 Q1015
  • 290600Z 11007KT 080V180 9999 FEW050 BKN065 OVC100 06/02 Q1015
  • 290530Z 10006KT 040V150 9999 -RA BKN050 OVC070 07/02 Q1015
  • 290500Z 12004KT 080V170 9999 -RA BKN050 OVC070 07/03 Q1016

TAF TAF LJPZ
Valid from the 29 at 06:00 until the 29 at 15:00 UTC


290500Z 2906/2915 12005KT 9999 BKN055
TEMPO 2906/2915 -RA



MET'MAP, your aeronautical weather chart ! - Copyright ORBIFLY December 2007 - Disclaimer

ORBIFLY MET'MAP TEAM :

Programming & Development : Alexandra Zaïnal
Original concept : Baudouin d'Aumeries
Technical & hardware support : Manuel Goepfert
Assistance : Marc-Olivier Méhu




SOURCES & CREDITS :

   NOAA